Time;durP1;ratioP1;P1;durP2;ratioP2;P2;SDS_P1;SDS_P2;PMS_P1;PMS_P2;Temp;Humidity;BMP_temperature;BMP_pressure;BME280_temperature;BME280_humidity;BME280_pressure;Samples;Min_cycle;Max_cycle;Signal;HPM_P1;HPM_P2
2022/01/29 00:00:57;;;;;;;14.63;11.70;;;4.50;90.40;;;;;;5099956;28;20555;-45
2022/01/29 00:03:23;;;;;;;13.43;11.57;;;4.40;90.40;;;;;;5117869;28;20453;-45
2022/01/29 00:05:49;;;;;;;14.00;11.10;;;4.40;90.50;;;;;;5115833;28;20742;-50
2022/01/29 00:08:16;;;;;;;12.03;10.47;;;4.40;90.50;;;;;;5110279;28;20165;-45
2022/01/29 00:10:43;;;;;;;12.97;10.50;;;4.40;90.40;;;;;;5117847;28;20492;-45
2022/01/29 00:13:09;;;;;;;11.53;9.73;;;4.40;90.60;;;;;;5121558;28;20478;-45
2022/01/29 00:15:35;;;;;;;11.20;9.90;;;4.40;90.40;;;;;;5118982;28;20427;-45
2022/01/29 00:18:00;;;;;;;11.53;10.00;;;4.40;90.40;;;;;;5121546;28;20249;-45
2022/01/29 00:20:26;;;;;;;14.60;10.20;;;4.40;90.40;;;;;;5118402;28;20172;-45
2022/01/29 00:22:53;;;;;;;11.00;9.87;;;4.30;90.50;;;;;;5121638;28;20271;-45
2022/01/29 00:25:19;;;;;;;13.63;10.57;;;4.30;90.60;;;;;;5121753;28;20935;-45
2022/01/29 00:27:44;;;;;;;10.83;9.20;;;4.30;90.70;;;;;;5121910;28;20438;-45
2022/01/29 00:30:16;;;;;;;12.47;10.10;;;4.30;90.90;;;;;;5121831;28;20482;-45
2022/01/29 00:32:42;;;;;;;12.00;9.30;;;4.20;90.80;;;;;;5122135;28;20176;-45
2022/01/29 00:35:08;;;;;;;10.87;9.77;;;4.20;90.80;;;;;;5117433;28;20825;-45
2022/01/29 00:37:33;;;;;;;10.83;9.73;;;4.20;90.80;;;;;;5101600;28;20212;-45
2022/01/29 00:39:59;;;;;;;13.00;10.07;;;4.20;90.80;;;;;;5105309;28;20510;-44
2022/01/29 00:42:25;;;;;;;11.87;9.70;;;4.20;90.70;;;;;;5120860;28;20593;-45
2022/01/29 00:44:51;;;;;;;9.67;8.67;;;4.20;90.80;;;;;;5101473;28;20574;-45
2022/01/29 00:47:17;;;;;;;9.93;8.47;;;4.20;90.80;;;;;;5119743;28;20190;-45
2022/01/29 00:49:43;;;;;;;11.60;8.90;;;4.20;90.80;;;;;;5102414;28;20827;-45
2022/01/29 00:52:09;;;;;;;10.20;9.20;;;4.20;90.80;;;;;;5119197;28;20191;-45
2022/01/29 00:54:35;;;;;;;10.87;8.90;;;4.20;90.80;;;;;;5119491;28;20543;-45
2022/01/29 00:57:01;;;;;;;12.00;8.40;;;4.20;90.80;;;;;;5119479;28;20517;-45
2022/01/29 00:59:26;;;;;;;10.60;8.67;;;4.10;90.70;;;;;;5120427;28;20249;-45
2022/01/29 01:01:52;;;;;;;9.57;8.23;;;4.10;90.70;;;;;;5120099;28;20176;-45
2022/01/29 01:04:18;;;;;;;9.53;8.50;;;4.10;90.60;;;;;;5102711;28;20208;-45
2022/01/29 01:06:44;;;;;;;12.47;8.00;;;4.10;90.60;;;;;;5120013;28;20571;-45
2022/01/29 01:09:09;;;;;;;8.90;7.63;;;4.10;90.90;;;;;;5120674;28;20497;-45
2022/01/29 01:11:35;;;;;;;9.40;7.30;;;4.10;90.50;;;;;;5121068;28;20318;-45
2022/01/29 01:14:01;;;;;;;9.57;8.00;;;4.10;90.60;;;;;;5120073;28;20180;-45
2022/01/29 01:16:27;;;;;;;8.50;7.50;;;4.10;90.50;;;;;;5119180;28;20184;-45
2022/01/29 01:18:52;;;;;;;10.03;8.37;;;4.00;90.40;;;;;;5119733;28;20204;-45
2022/01/29 01:21:18;;;;;;;9.10;7.00;;;4.00;90.40;;;;;;5119305;28;20596;-45
2022/01/29 01:23:44;;;;;;;14.50;8.20;;;4.10;90.40;;;;;;5120056;28;20237;-45
2022/01/29 01:26:09;;;;;;;8.37;7.57;;;4.10;90.40;;;;;;5120129;28;20524;-45
2022/01/29 01:28:35;;;;;;;9.03;7.63;;;4.10;90.30;;;;;;5120564;28;20199;-45
2022/01/29 01:31:01;;;;;;;13.50;7.80;;;4.10;90.30;;;;;;5119141;28;20191;-45
2022/01/29 01:33:27;;;;;;;9.70;7.50;;;4.10;90.30;;;;;;5119485;28;20449;-45
2022/01/29 01:35:57;;;;;;;7.60;6.50;;;4.10;90.30;;;;;;5118851;28;20176;-45
2022/01/29 01:38:40;;;;;;;8.53;7.07;;;4.10;90.20;;;;;;5101958;28;20429;-45
2022/01/29 01:41:10;;;;;;;9.60;8.10;;;4.10;90.20;;;;;;5106076;28;20543;-45
2022/01/29 01:43:36;;;;;;;8.60;7.57;;;4.10;90.10;;;;;;5109086;28;20462;-45
2022/01/29 01:46:02;;;;;;;9.23;7.70;;;4.10;90.10;;;;;;5101101;28;20444;-45
2022/01/29 01:48:28;;;;;;;7.77;6.97;;;4.10;90.10;;;;;;5119231;28;20420;-45
2022/01/29 01:50:54;;;;;;;10.33;6.73;;;4.10;90.10;;;;;;5118865;28;20437;-45
2022/01/29 01:53:20;;;;;;;7.77;6.80;;;4.10;90.10;;;;;;5118820;28;20184;-45
2022/01/29 01:55:50;;;;;;;8.93;7.37;;;4.10;90.10;;;;;;5119525;28;20436;-45
2022/01/29 01:58:15;;;;;;;7.73;6.90;;;4.10;90.10;;;;;;5102008;28;20434;-45
2022/01/29 02:00:41;;;;;;;7.33;6.53;;;4.10;90.10;;;;;;5119794;28;20499;-45
2022/01/29 02:03:08;;;;;;;7.97;7.13;;;4.10;90.10;;;;;;5120068;28;20261;-45
2022/01/29 02:05:34;;;;;;;9.60;7.40;;;4.10;90.00;;;;;;5120101;28;20179;-45
2022/01/29 02:08:02;;;;;;;8.60;6.40;;;4.20;90.00;;;;;;5120463;28;20406;-45
2022/01/29 02:10:28;;;;;;;8.80;7.90;;;4.20;90.30;;;;;;5119495;28;20223;-45
2022/01/29 02:12:57;;;;;;;8.93;7.30;;;4.20;90.00;;;;;;5119976;28;20451;-45
2022/01/29 02:15:24;;;;;;;6.90;6.20;;;4.20;90.00;;;;;;5118475;28;20426;-45
2022/01/29 02:17:50;;;;;;;7.23;5.70;;;4.20;89.90;;;;;;5119130;28;20472;-45
2022/01/29 02:20:27;;;;;;;9.50;6.03;;;4.30;89.80;;;;;;5119689;28;20433;-45
2022/01/29 02:22:53;;;;;;;10.10;8.30;;;4.30;89.80;;;;;;5119371;28;20430;-45
2022/01/29 02:25:32;;;;;;;10.30;6.77;;;4.30;89.70;;;;;;5118726;28;20461;-45
2022/01/29 02:28:15;;;;;;;7.30;6.57;;;4.30;89.60;;;;;;5118546;28;20183;-45
2022/01/29 02:30:45;;;;;;;7.90;6.07;;;4.30;89.50;;;;;;5118896;28;20425;-46
2022/01/29 02:33:13;;;;;;;9.80;6.80;;;4.30;89.40;;;;;;5117845;28;20474;-45
2022/01/29 02:35:43;;;;;;;9.00;7.03;;;4.30;89.50;;;;;;5118835;28;20406;-45
2022/01/29 02:38:09;;;;;;;7.57;6.67;;;4.30;89.50;;;;;;5118830;28;20418;-45
2022/01/29 02:40:43;;;;;;;9.00;7.50;;;4.30;89.50;;;;;;5118599;28;20432;-46
2022/01/29 02:43:11;;;;;;;9.53;7.73;;;4.30;89.50;;;;;;5119518;28;20692;-46
2022/01/29 02:45:36;;;;;;;10.07;8.10;;;4.30;89.40;;;;;;5118375;28;20512;-45
2022/01/29 02:48:02;;;;;;;11.77;8.83;;;4.30;89.50;;;;;;5118813;28;20441;-46
2022/01/29 02:50:27;;;;;;;8.73;7.87;;;4.30;89.40;;;;;;5100691;28;20180;-46
2022/01/29 02:52:53;;;;;;;10.33;7.87;;;4.30;89.30;;;;;;5119244;28;20183;-45
2022/01/29 02:55:19;;;;;;;14.43;7.03;;;4.30;89.30;;;;;;5107929;28;20525;-46
2022/01/29 02:57:44;;;;;;;8.20;7.20;;;4.30;89.20;;;;;;5096665;28;20176;-46
2022/01/29 03:00:10;;;;;;;7.43;6.73;;;4.30;89.20;;;;;;5106032;28;20184;-45
2022/01/29 03:02:36;;;;;;;8.80;7.20;;;4.30;89.30;;;;;;5104872;28;20188;-46
2022/01/29 03:05:02;;;;;;;8.43;6.93;;;4.20;89.10;;;;;;5106116;28;20465;-46
2022/01/29 03:07:28;;;;;;;7.77;6.47;;;4.20;89.10;;;;;;5117243;28;20520;-46
2022/01/29 03:09:53;;;;;;;6.83;6.10;;;4.20;89.20;;;;;;5117177;28;20495;-46
2022/01/29 03:12:19;;;;;;;7.53;6.40;;;4.20;89.20;;;;;;5118633;28;20574;-46
2022/01/29 03:14:45;;;;;;;8.40;7.10;;;4.20;89.20;;;;;;5118186;28;20188;-46
2022/01/29 03:17:11;;;;;;;7.60;6.57;;;4.20;89.30;;;;;;5118274;28;20258;-46
2022/01/29 03:19:36;;;;;;;6.77;5.80;;;4.20;89.20;;;;;;5118434;28;20191;-46
2022/01/29 03:22:02;;;;;;;7.90;5.73;;;4.20;89.30;;;;;;5119130;28;20176;-46
2022/01/29 03:24:28;;;;;;;6.77;5.67;;;4.20;89.30;;;;;;5118245;28;20226;-46
2022/01/29 03:26:53;;;;;;;6.93;6.00;;;4.20;89.30;;;;;;5103478;28;20188;-45
2022/01/29 03:29:19;;;;;;;5.93;5.33;;;4.20;89.30;;;;;;5105431;28;20173;-46
2022/01/29 03:31:44;;;;;;;6.77;5.87;;;4.20;89.30;;;;;;5118096;28;20220;-46
2022/01/29 03:34:10;;;;;;;9.13;7.20;;;4.20;89.30;;;;;;5116346;28;20214;-46
2022/01/29 03:36:36;;;;;;;6.37;5.30;;;4.20;89.40;;;;;;5116051;28;20562;-46
2022/01/29 03:39:01;;;;;;;8.00;5.07;;;4.10;89.30;;;;;;5116066;28;20293;-46
2022/01/29 03:41:27;;;;;;;7.93;5.80;;;4.10;89.40;;;;;;5115616;28;20520;-45
2022/01/29 03:43:55;;;;;;;8.30;5.30;;;4.10;89.40;;;;;;5115320;28;20278;-46
2022/01/29 03:46:21;;;;;;;6.57;4.90;;;4.20;89.50;;;;;;5115379;28;20410;-46
2022/01/29 03:48:46;;;;;;;4.80;3.97;;;4.10;89.40;;;;;;5116157;28;20470;-46
2022/01/29 03:51:12;;;;;;;6.20;5.20;;;4.10;89.40;;;;;;5118295;28;20435;-46
2022/01/29 03:53:37;;;;;;;7.00;4.83;;;4.10;89.40;;;;;;5117069;28;20466;-46
2022/01/29 03:56:03;;;;;;;6.37;5.00;;;4.10;89.60;;;;;;5117181;28;20176;-45
2022/01/29 03:58:29;;;;;;;4.33;3.93;;;4.10;89.70;;;;;;5117179;28;20577;-45
2022/01/29 04:00:54;;;;;;;5.60;4.30;;;4.10;89.70;;;;;;5117288;28;20180;-46
2022/01/29 04:03:20;;;;;;;5.10;4.60;;;4.10;89.80;;;;;;5117858;28;20214;-46
2022/01/29 04:05:46;;;;;;;5.50;4.33;;;4.10;89.80;;;;;;5117547;28;20210;-46
2022/01/29 04:08:17;;;;;;;6.17;4.93;;;4.10;89.80;;;;;;5117918;28;20199;-45
2022/01/29 04:10:43;;;;;;;6.60;4.97;;;4.10;89.80;;;;;;5117243;28;20223;-46
2022/01/29 04:13:11;;;;;;;5.23;4.40;;;4.10;89.80;;;;;;5118431;28;20417;-46
2022/01/29 04:15:37;;;;;;;5.67;4.50;;;4.20;89.80;;;;;;5117367;28;20433;-45
2022/01/29 04:18:03;;;;;;;4.80;3.53;;;4.20;89.70;;;;;;5117869;28;20843;-46
2022/01/29 04:20:29;;;;;;;4.67;4.27;;;4.20;89.60;;;;;;5099777;28;20585;-45
2022/01/29 04:22:54;;;;;;;6.10;4.57;;;4.20;89.60;;;;;;5118029;28;20414;-46
2022/01/29 04:25:20;;;;;;;5.10;4.17;;;4.20;89.60;;;;;;5117689;28;20208;-46
2022/01/29 04:27:47;;;;;;;5.83;4.60;;;4.20;89.50;;;;;;5099660;28;20171;-46
2022/01/29 04:30:30;;;;;;;8.53;4.27;;;4.30;89.60;;;;;;5117665;28;20176;-46
2022/01/29 04:35:24;;;;;;;3.50;2.93;;;4.20;89.40;;;;;;5117773;28;20441;-45
2022/01/29 04:37:50;;;;;;;5.00;3.60;;;4.20;89.50;;;;;;5117408;28;20436;-46
2022/01/29 04:40:15;;;;;;;4.60;3.80;;;4.20;89.40;;;;;;5117986;28;20272;-46
2022/01/29 04:42:41;;;;;;;4.00;3.60;;;4.10;89.30;;;;;;5099513;28;20494;-46
2022/01/29 04:45:07;;;;;;;6.27;3.60;;;4.20;89.60;;;;;;5117863;28;20212;-46
2022/01/29 04:47:33;;;;;;;3.77;3.30;;;4.10;89.40;;;;;;5117510;28;20255;-46
2022/01/29 04:49:58;;;;;;;5.27;4.07;;;4.10;89.40;;;;;;5117278;28;20430;-46
2022/01/29 04:52:24;;;;;;;7.03;3.80;;;4.10;89.50;;;;;;5116762;28;20579;-46
2022/01/29 04:54:49;;;;;;;3.63;3.20;;;4.10;89.40;;;;;;5098902;28;20185;-46
2022/01/29 04:57:15;;;;;;;3.87;3.47;;;4.10;89.50;;;;;;5100513;28;20435;-46
2022/01/29 04:59:41;;;;;;;3.77;3.23;;;4.10;89.60;;;;;;5119176;28;20188;-46
2022/01/29 05:02:06;;;;;;;4.67;3.60;;;4.00;90.10;;;;;;5121812;28;20176;-46
2022/01/29 05:04:32;;;;;;;4.43;3.97;;;4.00;89.60;;;;;;5120801;28;20215;-47
2022/01/29 05:06:58;;;;;;;4.90;3.83;;;4.00;89.70;;;;;;5121567;28;20194;-47
2022/01/29 05:09:23;;;;;;;4.80;3.30;;;4.00;90.10;;;;;;5121502;28;20463;-47
2022/01/29 05:11:51;;;;;;;6.00;3.90;;;4.10;89.70;;;;;;5121296;28;20236;-47
2022/01/29 05:27:53;;;;;;;5.93;3.40;;;4.20;89.20;;;;;;5098656;28;20413;-47
2022/01/29 05:30:19;;;;;;;4.30;3.20;;;4.20;89.20;;;;;;5099659;28;20852;-47
2022/01/29 05:32:44;;;;;;;3.47;3.17;;;4.20;89.10;;;;;;5100380;28;20241;-47
2022/01/29 05:35:10;;;;;;;6.23;3.37;;;4.20;89.10;;;;;;5100751;28;20192;-47
2022/01/29 05:37:36;;;;;;;7.30;4.20;;;4.30;89.10;;;;;;5120305;28;20759;-47
2022/01/29 05:40:02;;;;;;;3.77;3.43;;;4.30;88.90;;;;;;5101213;28;20245;-56
2022/01/29 05:42:27;;;;;;;3.63;3.27;;;4.30;88.90;;;;;;5100774;28;20697;-47
2022/01/29 05:44:53;;;;;;;3.43;3.00;;;4.30;88.80;;;;;;5099739;28;20466;-47
2022/01/29 05:47:19;;;;;;;3.93;3.40;;;4.30;88.80;;;;;;5117949;28;20172;-47
2022/01/29 05:49:44;;;;;;;4.37;3.70;;;4.30;88.70;;;;;;5118039;28;20172;-47
2022/01/29 05:52:10;;;;;;;5.90;3.90;;;4.30;88.70;;;;;;5118605;28;20215;-47
2022/01/29 05:54:35;;;;;;;5.07;3.53;;;4.30;88.70;;;;;;5117845;28;20176;-47
2022/01/29 05:57:01;;;;;;;4.40;3.30;;;4.40;88.80;;;;;;5100158;28;20299;-47
2022/01/29 05:59:27;;;;;;;4.87;3.70;;;4.40;88.70;;;;;;5118719;28;20202;-46
2022/01/29 06:01:52;;;;;;;3.60;3.17;;;4.40;88.60;;;;;;5118539;28;20568;-47
2022/01/29 06:04:18;;;;;;;5.87;4.43;;;4.40;88.50;;;;;;5118557;28;20314;-47
2022/01/29 06:06:44;;;;;;;5.13;3.53;;;4.40;88.40;;;;;;5118912;28;20176;-46
2022/01/29 06:09:09;;;;;;;3.77;3.33;;;4.40;88.40;;;;;;5117425;28;20468;-46
2022/01/29 06:11:35;;;;;;;3.30;3.00;;;4.40;88.30;;;;;;5120395;28;20270;-47
2022/01/29 06:14:01;;;;;;;4.40;4.00;;;4.40;88.20;;;;;;5117839;28;20292;-47
2022/01/29 06:16:27;;;;;;;4.90;3.50;;;4.40;88.30;;;;;;5118525;28;20179;-47
2022/01/29 06:18:52;;;;;;;4.10;3.23;;;4.40;88.20;;;;;;5119935;28;20430;-47
2022/01/29 06:21:18;;;;;;;3.77;3.20;;;4.40;88.30;;;;;;5118306;28;20429;-47
2022/01/29 06:23:44;;;;;;;5.17;3.70;;;4.40;88.30;;;;;;5118270;28;20601;-47
2022/01/29 06:26:13;;;;;;;4.93;3.33;;;4.40;88.30;;;;;;5120417;28;20180;-48
2022/01/29 06:28:39;;;;;;;4.57;4.00;;;4.40;88.40;;;;;;5118871;28;20423;-47
2022/01/29 06:31:06;;;;;;;4.83;3.70;;;4.40;88.40;;;;;;5119217;28;20931;-47
2022/01/29 06:33:31;;;;;;;6.33;3.70;;;4.40;88.50;;;;;;5117766;28;20421;-47
2022/01/29 06:35:57;;;;;;;4.67;3.00;;;4.50;88.60;;;;;;5117815;28;20422;-46
2022/01/29 06:38:23;;;;;;;4.37;3.83;;;4.50;88.50;;;;;;5117689;28;20183;-47
2022/01/29 06:40:49;;;;;;;3.70;3.40;;;4.50;88.40;;;;;;5116565;28;20176;-46
2022/01/29 06:43:14;;;;;;;6.50;3.77;;;4.50;88.40;;;;;;5116856;28;20769;-46
2022/01/29 06:45:42;;;;;;;7.67;4.00;;;4.50;88.40;;;;;;5116892;28;20430;-47
2022/01/29 06:48:08;;;;;;;4.50;3.60;;;4.50;88.30;;;;;;5117880;28;20484;-47
2022/01/29 06:50:34;;;;;;;6.30;3.87;;;4.50;88.30;;;;;;5119064;28;20437;-46
2022/01/29 06:53:00;;;;;;;4.50;3.63;;;4.60;88.40;;;;;;5118357;28;20478;-47
2022/01/29 06:55:26;;;;;;;5.73;3.90;;;4.60;88.40;;;;;;5118713;28;20453;-46
2022/01/29 06:57:51;;;;;;;5.80;3.73;;;4.60;88.40;;;;;;5118356;28;20524;-46
2022/01/29 07:00:17;;;;;;;5.43;3.50;;;4.60;88.50;;;;;;5117511;28;20275;-46
2022/01/29 07:02:43;;;;;;;4.20;3.80;;;4.60;88.50;;;;;;5118192;28;20546;-46
2022/01/29 07:05:10;;;;;;;5.10;4.33;;;4.60;88.50;;;;;;5117620;28;20204;-46
2022/01/29 07:07:36;;;;;;;4.57;3.80;;;4.60;88.40;;;;;;5117737;28;20176;-46
2022/01/29 07:10:04;;;;;;;4.60;4.20;;;4.60;88.50;;;;;;5117191;28;20670;-47
2022/01/29 07:12:30;;;;;;;6.47;4.63;;;4.60;88.70;;;;;;5117889;28;20550;-47
2022/01/29 07:14:57;;;;;;;6.00;4.40;;;4.60;88.80;;;;;;5117610;28;20446;-47
2022/01/29 07:17:24;;;;;;;5.00;4.50;;;4.50;88.70;;;;;;5098997;28;20244;-46
2022/01/29 07:19:51;;;;;;;3.83;3.53;;;4.50;88.90;;;;;;5116495;28;20407;-46
2022/01/29 07:22:18;;;;;;;5.83;5.03;;;4.60;89.10;;;;;;5116757;28;20525;-47
2022/01/29 07:24:43;;;;;;;5.20;4.67;;;4.60;89.20;;;;;;5100151;28;20499;-47
2022/01/29 07:27:10;;;;;;;5.37;4.50;;;4.60;89.20;;;;;;5118108;28;20738;-47
2022/01/29 07:29:36;;;;;;;7.63;4.40;;;4.60;89.20;;;;;;5117240;28;20458;-47
2022/01/29 07:32:02;;;;;;;7.40;4.30;;;4.70;89.20;;;;;;5116682;28;20417;-46
2022/01/29 07:34:28;;;;;;;5.57;4.30;;;4.70;89.00;;;;;;5117164;28;20233;-47
2022/01/29 07:36:55;;;;;;;4.87;4.47;;;4.70;88.90;;;;;;5117833;28;20457;-46
2022/01/29 07:39:21;;;;;;;4.70;4.30;;;4.70;88.70;;;;;;5117243;28;20406;-46
2022/01/29 07:41:47;;;;;;;5.80;4.83;;;4.70;88.60;;;;;;5117345;28;20459;-47
2022/01/29 07:44:14;;;;;;;6.17;5.10;;;4.80;88.70;;;;;;5116611;28;20472;-47
2022/01/29 07:46:39;;;;;;;7.53;6.70;;;4.80;88.60;;;;;;5115978;28;20418;-47
2022/01/29 07:49:05;;;;;;;7.97;7.17;;;4.80;88.50;;;;;;5116516;28;20479;-46
2022/01/29 07:51:31;;;;;;;7.37;6.67;;;4.80;88.50;;;;;;5116687;28;20717;-47
2022/01/29 07:53:56;;;;;;;9.43;8.43;;;4.80;88.40;;;;;;5099054;28;20186;-50
2022/01/29 07:56:22;;;;;;;7.77;7.07;;;4.90;88.40;;;;;;5117204;28;20180;-47
2022/01/29 07:58:48;;;;;;;8.03;6.93;;;4.90;88.30;;;;;;5099376;28;20176;-47
2022/01/29 08:01:14;;;;;;;6.30;5.80;;;5.00;88.20;;;;;;5117048;28;20238;-47
2022/01/29 08:03:40;;;;;;;6.37;5.57;;;5.00;88.00;;;;;;5099321;28;20458;-47
2022/01/29 08:06:06;;;;;;;5.17;4.70;;;5.10;87.80;;;;;;5116717;28;20203;-47
2022/01/29 08:08:32;;;;;;;6.13;5.53;;;5.10;87.60;;;;;;5117551;28;20459;-46
2022/01/29 08:10:58;;;;;;;5.60;4.87;;;5.20;87.30;;;;;;5117025;28;20469;-46
2022/01/29 08:13:23;;;;;;;5.70;4.30;;;5.20;86.90;;;;;;5116588;28;20183;-47
2022/01/29 08:15:49;;;;;;;5.10;4.40;;;5.30;86.50;;;;;;5116029;28;20192;-47
2022/01/29 08:18:15;;;;;;;4.83;4.10;;;5.30;86.00;;;;;;5115838;28;20448;-46
2022/01/29 08:20:41;;;;;;;6.40;5.43;;;5.40;85.80;;;;;;5115898;28;20570;-47
2022/01/29 08:23:09;;;;;;;5.33;4.83;;;5.40;85.40;;;;;;5115015;28;20259;-47
2022/01/29 08:25:37;;;;;;;4.53;4.03;;;5.40;84.90;;;;;;5106255;28;20183;-46
2022/01/29 08:28:05;;;;;;;5.50;4.90;;;5.40;84.70;;;;;;5110322;28;20407;-46
2022/01/29 08:30:30;;;;;;;4.80;3.70;;;5.50;84.60;;;;;;5095582;28;20502;-47
2022/01/29 08:32:56;;;;;;;6.03;5.43;;;5.60;84.50;;;;;;5099578;28;20502;-46
2022/01/29 08:35:22;;;;;;;7.53;5.30;;;5.70;83.90;;;;;;5106173;28;20581;-47
2022/01/29 08:37:48;;;;;;;5.50;4.90;;;5.80;83.50;;;;;;5093273;28;20183;-47
2022/01/29 08:40:14;;;;;;;5.27;4.57;;;5.90;83.10;;;;;;5119909;28;20417;-47
2022/01/29 08:42:41;;;;;;;6.60;5.00;;;6.00;82.80;;;;;;5119918;28;20177;-47
2022/01/29 08:45:08;;;;;;;7.20;5.60;;;6.10;82.20;;;;;;5119289;28;20473;-47
2022/01/29 08:47:34;;;;;;;6.40;5.20;;;6.20;81.60;;;;;;5100442;28;20422;-47
2022/01/29 08:50:03;;;;;;;5.93;5.00;;;6.20;80.70;;;;;;5097052;28;20479;-47
2022/01/29 08:52:29;;;;;;;6.10;5.50;;;6.20;80.40;;;;;;5097365;28;20169;-47
2022/01/29 08:54:55;;;;;;;7.33;6.53;;;6.20;80.10;;;;;;5097696;28;20454;-47
2022/01/29 08:57:22;;;;;;;7.77;6.70;;;6.20;80.00;;;;;;5108916;28;20778;-47
2022/01/29 08:59:47;;;;;;;7.43;6.33;;;6.20;79.90;;;;;;5098449;28;20488;-47
2022/01/29 09:02:13;;;;;;;6.70;5.73;;;6.20;79.70;;;;;;5099244;28;20419;-47
2022/01/29 09:04:39;;;;;;;7.70;5.93;;;6.20;79.60;;;;;;5105336;28;20616;-47
2022/01/29 09:07:04;;;;;;;6.90;6.20;;;6.20;79.70;;;;;;5118585;28;20185;-47
2022/01/29 09:09:30;;;;;;;6.63;5.93;;;6.30;79.80;;;;;;5119256;28;20183;-47
2022/01/29 09:11:56;;;;;;;6.13;5.40;;;6.30;79.80;;;;;;5105901;28;20234;-47
2022/01/29 09:14:21;;;;;;;7.60;5.60;;;6.30;79.70;;;;;;5119897;28;20191;-47
2022/01/29 09:16:47;;;;;;;6.73;6.03;;;6.40;79.90;;;;;;5119429;28;20562;-47
2022/01/29 09:19:13;;;;;;;6.17;5.57;;;6.50;80.10;;;;;;5118726;28;20210;-47
2022/01/29 09:21:39;;;;;;;6.50;5.83;;;6.70;80.20;;;;;;5118624;28;20204;-47
2022/01/29 09:24:05;;;;;;;6.77;5.60;;;6.90;80.10;;;;;;5118144;28;20904;-47
2022/01/29 09:26:30;;;;;;;6.53;5.93;;;7.00;79.50;;;;;;5119728;28;20608;-47
2022/01/29 09:28:56;;;;;;;7.23;6.00;;;7.20;79.20;;;;;;5119089;28;20409;-47
2022/01/29 09:31:22;;;;;;;8.50;6.57;;;7.30;79.50;;;;;;5119430;28;20284;-47
2022/01/29 09:33:48;;;;;;;6.50;5.80;;;7.50;78.50;;;;;;5118696;28;20573;-47
2022/01/29 09:36:14;;;;;;;5.90;5.30;;;7.60;77.90;;;;;;5118781;28;20436;-47
2022/01/29 09:38:39;;;;;;;9.10;5.80;;;7.80;77.60;;;;;;5118345;28;20410;-47
2022/01/29 09:41:05;;;;;;;7.40;5.63;;;7.90;77.30;;;;;;5118244;28;20477;-47
2022/01/29 09:43:32;;;;;;;7.03;6.33;;;8.20;78.00;;;;;;5117708;28;20187;-46
2022/01/29 09:45:58;;;;;;;6.13;5.27;;;8.50;77.00;;;;;;5117854;28;20453;-46
2022/01/29 09:48:26;;;;;;;6.47;5.80;;;8.80;76.50;;;;;;5117995;28;20403;-46
2022/01/29 09:50:52;;;;;;;7.43;6.30;;;9.00;75.40;;;;;;5117937;28;20425;-46
2022/01/29 09:53:18;;;;;;;6.77;6.07;;;9.20;74.80;;;;;;5118371;28;20417;-46
2022/01/29 09:55:45;;;;;;;6.00;5.30;;;9.30;73.50;;;;;;5100097;28;20487;-47
2022/01/29 09:58:11;;;;;;;6.90;5.50;;;9.60;73.40;;;;;;5117586;28;20517;-47
2022/01/29 10:00:38;;;;;;;6.23;5.10;;;10.10;71.70;;;;;;5116734;27;20822;-47
2022/01/29 10:03:10;;;;;;;6.10;5.50;;;10.60;70.70;;;;;;5116815;28;20450;-47
2022/01/29 10:05:40;;;;;;;5.50;4.93;;;11.10;68.90;;;;;;5117636;28;20914;-47
2022/01/29 10:08:13;;;;;;;6.20;5.60;;;11.60;67.50;;;;;;5116895;28;20441;-47
2022/01/29 10:10:41;;;;;;;5.97;5.37;;;12.20;66.00;;;;;;5123554;27;20477;-47
2022/01/29 10:13:22;;;;;;;6.90;5.60;;;12.50;64.10;;;;;;5138867;27;20416;-47
2022/01/29 10:15:48;;;;;;;6.03;5.43;;;12.70;62.00;;;;;;5089985;28;20540;-47
2022/01/29 10:18:21;;;;;;;5.93;5.33;;;13.00;60.90;;;;;;5084619;28;20436;-47
2022/01/29 10:20:47;;;;;;;5.90;5.13;;;13.20;59.90;;;;;;5104428;28;20440;-47
2022/01/29 10:23:12;;;;;;;5.53;5.00;;;13.40;59.30;;;;;;5095964;28;20414;-47
2022/01/29 10:25:42;;;;;;;5.30;4.80;;;13.30;58.50;;;;;;5097759;28;20219;-47
2022/01/29 10:28:16;;;;;;;5.80;4.50;;;13.50;58.60;;;;;;5096894;28;20169;-47
2022/01/29 10:30:51;;;;;;;5.57;4.57;;;13.70;58.10;;;;;;5101008;28;20553;-47
2022/01/29 10:33:22;;;;;;;3.70;3.40;;;14.10;58.00;;;;;;5117952;28;20429;-47
2022/01/29 10:35:50;;;;;;;3.77;3.47;;;14.50;57.60;;;;;;5116924;28;20441;-47
2022/01/29 10:38:43;;;;;;;4.30;3.60;;;14.60;56.70;;;;;;5118062;28;20508;-46
2022/01/29 10:41:21;;;;;;;4.30;3.73;;;14.60;56.20;;;;;;5105273;28;20460;-47
2022/01/29 10:44:25;;;;;;;6.27;3.60;;;14.30;56.00;;;;;;5118048;28;20851;-47
2022/01/29 10:46:55;;;;;;;2.97;2.40;;;14.10;56.50;;;;;;5117218;28;20407;-46
2022/01/29 10:49:22;;;;;;;3.63;2.97;;;14.00;56.60;;;;;;5116147;28;20400;-46
2022/01/29 10:51:57;;;;;;;3.43;2.50;;;14.10;57.10;;;;;;5115899;28;20857;-47
2022/01/29 10:54:23;;;;;;;3.53;3.07;;;14.40;57.00;;;;;;5116842;28;20718;-46
2022/01/29 10:57:09;;;;;;;2.70;2.23;;;14.50;56.30;;;;;;5115095;28;20473;-47
2022/01/29 10:59:36;;;;;;;4.33;2.53;;;14.50;56.10;;;;;;5097822;28;20521;-46
2022/01/29 11:02:09;;;;;;;3.00;2.70;;;14.90;56.30;;;;;;5118107;28;20434;-46
2022/01/29 11:04:36;;;;;;;2.80;2.37;;;15.60;56.00;;;;;;5115785;28;20513;-47
2022/01/29 11:07:06;;;;;;;2.67;2.27;;;15.80;55.10;;;;;;5117971;28;20408;-47
2022/01/29 11:09:33;;;;;;;8.10;2.77;;;15.70;54.30;;;;;;5117826;28;20438;-47
2022/01/29 11:12:02;;;;;;;3.10;2.33;;;15.30;54.30;;;;;;5117697;28;20496;-47
2022/01/29 11:14:28;;;;;;;3.87;2.30;;;14.80;54.50;;;;;;5116997;28;20749;-47
2022/01/29 11:16:54;;;;;;;3.30;3.00;;;14.30;55.00;;;;;;5116568;28;20431;-46
2022/01/29 11:19:20;;;;;;;3.97;2.50;;;13.90;55.30;;;;;;5099109;28;20836;-47
2022/01/29 11:21:49;;;;;;;3.30;2.70;;;13.50;55.90;;;;;;5116458;28;20412;-47
2022/01/29 11:24:17;;;;;;;2.70;2.50;;;13.10;56.40;;;;;;5098325;28;20895;-47
2022/01/29 11:26:45;;;;;;;2.03;1.83;;;12.80;56.90;;;;;;5097613;28;20421;-46
2022/01/29 11:29:33;;;;;;;2.73;1.83;;;12.80;74.30;;;;;;5096842;28;20409;-46
2022/01/29 11:32:20;;;;;;;3.20;1.90;;;13.20;80.20;;;;;;5113754;28;20416;-47
2022/01/29 11:35:17;;;;;;;2.00;1.70;;;13.50;80.00;;;;;;5115227;28;20406;-46
2022/01/29 11:38:01;;;;;;;3.20;2.63;;;13.90;79.60;;;;;;5114261;28;20825;-46
2022/01/29 11:40:28;;;;;;;3.90;2.37;;;14.30;76.00;;;;;;5116512;28;20420;-47
2022/01/29 11:43:11;;;;;;;2.60;2.10;;;14.50;73.30;;;;;;5115470;28;20406;-47
2022/01/29 11:45:44;;;;;;;3.03;2.30;;;14.70;71.90;;;;;;5106803;28;20469;-47
2022/01/29 11:48:20;;;;;;;4.00;3.33;;;14.70;65.80;;;;;;5094625;28;20441;-47
2022/01/29 11:50:47;;;;;;;4.03;3.07;;;14.10;60.10;;;;;;5110256;28;20436;-47
2022/01/29 11:53:14;;;;;;;2.73;2.53;;;13.70;59.30;;;;;;5096443;28;20416;-47
2022/01/29 11:55:43;;;;;;;2.73;2.53;;;13.30;59.60;;;;;;5096164;28;20522;-47
2022/01/29 11:58:18;;;;;;;3.17;2.87;;;12.90;59.90;;;;;;5078085;28;20549;-47
2022/01/29 12:00:52;;;;;;;3.00;2.70;;;12.70;60.40;;;;;;5080753;28;20453;-47
2022/01/29 12:03:45;;;;;;;3.17;2.67;;;12.40;60.40;;;;;;5101723;28;20431;-47
2022/01/29 12:09:02;;;;;;;3.83;3.23;;;11.80;61.30;;;;;;5105380;28;20480;-47
2022/01/29 12:11:29;;;;;;;3.47;3.17;;;11.50;61.80;;;;;;5114703;28;20724;-47
2022/01/29 12:14:13;;;;;;;4.60;3.23;;;11.30;62.50;;;;;;5118953;28;20420;-47
2022/01/29 12:17:02;;;;;;;4.43;3.07;;;11.10;63.20;;;;;;5108909;28;20708;-47
2022/01/29 12:19:47;;;;;;;3.13;2.83;;;11.00;63.70;;;;;;5110622;28;20489;-47
2022/01/29 12:22:21;;;;;;;4.80;3.63;;;10.90;64.40;;;;;;5099603;28;20528;-47
2022/01/29 12:24:58;;;;;;;6.20;3.47;;;10.70;65.00;;;;;;5098814;28;20530;-47
2022/01/29 12:27:51;;;;;;;4.87;4.20;;;10.50;65.30;;;;;;5099977;28;20432;-47
2022/01/29 12:30:22;;;;;;;5.10;3.90;;;10.40;66.00;;;;;;5099692;28;20437;-47
2022/01/29 12:32:55;;;;;;;4.80;3.73;;;10.20;66.90;;;;;;5109967;28;20429;-47
2022/01/29 12:35:21;;;;;;;4.70;3.50;;;10.10;67.40;;;;;;5119673;28;20426;-47
2022/01/29 12:37:54;;;;;;;3.40;3.10;;;9.90;69.40;;;;;;5101727;28;20414;-47
2022/01/29 12:40:22;;;;;;;3.60;2.90;;;9.80;70.00;;;;;;5120367;28;20445;-47
2022/01/29 12:42:59;;;;;;;3.77;2.90;;;9.70;70.50;;;;;;5119601;28;20566;-47
2022/01/29 12:45:28;;;;;;;3.90;3.13;;;9.60;70.90;;;;;;5118390;28;20498;-47
2022/01/29 12:48:10;;;;;;;3.33;2.93;;;9.60;71.70;;;;;;5118927;28;20505;-47
2022/01/29 12:50:37;;;;;;;3.60;2.70;;;9.50;72.10;;;;;;5117251;28;20696;-47
2022/01/29 12:53:18;;;;;;;4.73;2.93;;;9.40;72.70;;;;;;5119121;28;20809;-47
2022/01/29 12:56:07;;;;;;;3.63;2.73;;;9.40;73.20;;;;;;5119388;28;20535;-46
2022/01/29 12:58:41;;;;;;;4.00;3.30;;;9.40;73.90;;;;;;5119961;28;21071;-48
2022/01/29 13:01:09;;;;;;;3.83;3.40;;;9.30;74.00;;;;;;5119472;28;20505;-48
2022/01/29 13:03:37;;;;;;;2.80;2.43;;;9.30;74.30;;;;;;5118918;28;20825;-48
2022/01/29 13:06:08;;;;;;;3.17;2.77;;;9.30;74.70;;;;;;5119360;28;20430;-46
2022/01/29 13:08:35;;;;;;;2.47;2.27;;;9.20;75.00;;;;;;5119330;28;20439;-46
2022/01/29 13:11:01;;;;;;;5.00;3.40;;;9.20;75.30;;;;;;5119526;28;20552;-47
2022/01/29 13:13:32;;;;;;;3.93;2.80;;;9.10;75.70;;;;;;5119134;28;20423;-47
2022/01/29 13:15:59;;;;;;;3.30;2.30;;;9.10;76.10;;;;;;5119578;28;20435;-47